Current Conditions for Raleigh NC


Raleigh-Durham International Airport
KRDU - Raleigh-Durham Intl, North Carolina, USA
Distance from station: WNW 4mi, 6km
Updated: Sun, 14-Apr-2024 12:51am MDT
Clear
Clear
 Wind from calm
Wind: Calm
Temperature: 48°F, 9°C
Dew Point: 39°F, 4°C
Humidity: 71%
Barometer: 30.08 inHg, 1018.6 hPa
Clouds: Clear
Visibility: 10 miles, 16 km
2024/04/14 06:51 KRDU 140651Z 00000KT 10SM CLR 09/04 A3008 RMK AO2 SLP183 T00890039

7 Day Forecast for Raleigh NC from meteoblue

meteoblue

Images above are clickable. However, you may view Raleigh NC forecasts in a new tab from other weather providers using this LINK.


Hourly Forecast in 3 Hour Increments from meteoblue

meteoblue

Raleigh NC Radar from National Weather Service

Radar

Southeast Satellite - GOES 16

You may need to Refresh your broswer multiple times for the image to download.


Raleigh Webcam from Skyline Webcams.